OOCL Kaohsiung — 9V9830 — position and weather

sailwx.info

Track history (hours):
 
Tides and Currents Weather Stations Pressure Air Temp Water Temp Dewpoint Dewpoint Depression Visibility Wind Speed Wind Dir Waves Ship Positions

OOCL Kaohsiung

Last reported at 2017-Oct-13 02:07 UTC. Time now 2017-Oct-17 15:22 UTC.
Position S 35°10' E 138°04'.

Length 280 m; draft 11.5 m.

Type: Ship. MMSI: 566389000.

Date/timePositionNaut miles runAvg speedWind from/ knotsBaromVisibWave heightAir tempDewpointWater temp
2017-Oct-13 02:07S 35°10' E 138°04'214.3
2017-Oct-13 02:00S 35°09' E 138°06'2313.9
2017-Oct-13 00:21S 34°50' E 138°21'2 5.3
2017-Oct-13 00:00S 34°48' E 138°22'4 8.6
2017-Oct-12 23:30S 34°47' E 138°27'2 1.7
2017-Oct-12 22:08S 34°46' E 138°30'0 0.0
2017-Oct-12 04:07S 34°46' E 138°30'0 0.5
2017-Oct-12 04:00S 34°46' E 138°29'27 4.9
2017-Oct-11 22:32S 35°06' E 138°08'114.4
2017-Oct-11 22:30S 35°06' E 138°08'714.0
2017-Oct-11 22:01S 35°13' E 138°05'714.5
2017-Oct-11 21:31S 35°20' E 138°03'37213.1
2017-Oct-10 17:10S 38°12' E 144°55'318.9
2017-Oct-10 17:00S 38°09' E 144°55'918.2
2017-Oct-10 16:30S 37°60' E 144°55'713.9
2017-Oct-10 16:00S 37°53' E 144°56'3 7.0
2017-Oct-10 15:30S 37°50' E 144°54'1 2.0
2017-Oct-10 14:58S 37°49' E 144°55'0 0.0
2017-Oct-10 13:07S 37°49' E 144°55'0 0.0
2017-Oct-10 12:55S 37°49' E 144°55'0 0.0
2017-Oct-10 12:25S 37°49' E 144°55'0 0.0
2017-Oct-10 10:01S 37°49' E 144°55'0 0.0
2017-Oct-09 18:40S 37°49' E 144°55'0 0.0
2017-Oct-09 17:16S 37°49' E 144°55'0 0.0
2017-Oct-09 16:28S 37°49' E 144°55'0 0.0
2017-Oct-09 16:01S 37°49' E 144°55'0 0.0
2017-Oct-09 15:22S 37°49' E 144°55'0 0.0
2017-Oct-09 15:01S 37°49' E 144°55'0 0.0
2017-Oct-09 14:22S 37°49' E 144°55'0 0.0
2017-Oct-09 14:01S 37°49' E 144°55'0 0.0
2017-Oct-09 13:28S 37°49' E 144°55'0 0.0
2017-Oct-09 09:55S 37°49' E 144°55'0 0.0
2017-Oct-09 07:58S 37°49' E 144°55'4 0.7
2017-Oct-09 02:17S 37°53' E 144°56'412.2
2017-Oct-09 01:57S 37°57' E 144°56'713.1
2017-Oct-09 01:26S 38°04' E 144°56'151 6.7
2017-Oct-08 02:46S 38°46' E 148°01'619.8
2017-Oct-08 02:26S 38°44' E 148°09'1016.6
2017-Oct-08 01:52S 38°39' E 148°19'615.1
2017-Oct-08 01:30S 38°36' E 148°25'914.6
2017-Oct-08 00:54S 38°31' E 148°34'714.1
2017-Oct-08 00:22S 38°26' E 148°42'714.4
2017-Oct-07 23:54S 38°23' E 148°49'714.7
2017-Oct-07 23:25S 38°19' E 148°56'715.3
2017-Oct-07 23:00S 38°15' E 149°03'915.5
2017-Oct-07 22:26S 38°09' E 149°12'715.2
2017-Oct-07 22:00S 38°06' E 149°19'1415.0
2017-Oct-07 21:02S 37°57' E 149°34'115.5
2017-Oct-07 21:00S 37°57' E 149°35'252 4.9
2017-Oct-05 17:56S 33°58' E 151°13'1 1.2
2017-Oct-05 17:30S 33°58' E 151°12'4 7.3
2017-Oct-05 16:59S 34°01' E 151°16'11 7.7
2017-Oct-05 15:30S 34°10' E 151°25'4 6.9
2017-Oct-05 15:00S 34°13' E 151°24'612.8
2017-Oct-05 14:31S 34°19' E 151°22'2012.9
2017-Oct-05 13:00S 34°38' E 151°16'21016.6
2017-Oct-05 00:24S 37°56' E 149°49'1219.2
2017-Oct-04 23:47S 38°04' E 149°38'1418.7
2017-Oct-04 23:03S 38°13' E 149°25'418.7
2017-Oct-04 22:51S 38°15' E 149°21'719.1
2017-Oct-04 22:29S 38°18' E 149°14'1019.4
2017-Oct-04 21:58S 38°24' E 149°03'919.5
2017-Oct-04 21:30S 38°29' E 148°53'1020.0
2017-Oct-04 21:00S 38°34' E 148°42'1120.1
2017-Oct-04 20:29S 38°40' E 148°31'919.7
2017-Oct-04 20:00S 38°45' E 148°20'1018.6
2017-Oct-04 19:28S 38°49' E 148°09'919.8
2017-Oct-04 19:00S 38°52' E 147°58'1019.7
2017-Oct-04 18:30S 38°55' E 147°46'2520.1
2017-Oct-04 17:17S 39°04' E 147°16'620.3
2017-Oct-04 16:58S 39°06' E 147°09'920.2
2017-Oct-04 16:30S 39°10' E 146°57'2819.7
2017-Oct-04 15:05S 39°16' E 146°22'3719.1
2017-Oct-04 13:10S 39°16' E 145°35'418.6
2017-Oct-04 12:58S 39°16' E 145°30'918.6
2017-Oct-04 12:30S 39°16' E 145°19'  
Track history (hours):
 
Tides and Currents Weather Stations Pressure Air Temp Water Temp Dewpoint Dewpoint Depression Visibility Wind Speed Wind Dir Waves Ship Positions

OOCL Kaohsiung

Last reported at 2017-Oct-13 02:07 UTC. Time now 2017-Oct-17 15:22 UTC.
Position S 35°10' E 138°04'.

Length 280 m; draft 11.5 m.

Type: Ship. MMSI: 566389000.

Date/timePositionNaut miles runAvg speedWind from/ knotsBaromVisibWave heightAir tempDewpointWater temp
2017-Oct-13 02:07S 35°10' E 138°04'214.3
2017-Oct-13 02:00S 35°09' E 138°06'2313.9
2017-Oct-13 00:21S 34°50' E 138°21'2 5.3
2017-Oct-13 00:00S 34°48' E 138°22'4 8.6
2017-Oct-12 23:30S 34°47' E 138°27'2 1.7
2017-Oct-12 22:08S 34°46' E 138°30'0 0.0
2017-Oct-12 04:07S 34°46' E 138°30'0 0.5
2017-Oct-12 04:00S 34°46' E 138°29'27 4.9
2017-Oct-11 22:32S 35°06' E 138°08'114.4
2017-Oct-11 22:30S 35°06' E 138°08'714.0
2017-Oct-11 22:01S 35°13' E 138°05'714.5
2017-Oct-11 21:31S 35°20' E 138°03'37213.1
2017-Oct-10 17:10S 38°12' E 144°55'318.9
2017-Oct-10 17:00S 38°09' E 144°55'918.2
2017-Oct-10 16:30S 37°60' E 144°55'713.9
2017-Oct-10 16:00S 37°53' E 144°56'3 7.0
2017-Oct-10 15:30S 37°50' E 144°54'1 2.0
2017-Oct-10 14:58S 37°49' E 144°55'0 0.0
2017-Oct-10 13:07S 37°49' E 144°55'0 0.0
2017-Oct-10 12:55S 37°49' E 144°55'0 0.0
2017-Oct-10 12:25S 37°49' E 144°55'0 0.0
2017-Oct-10 10:01S 37°49' E 144°55'0 0.0
2017-Oct-09 18:40S 37°49' E 144°55'0 0.0
2017-Oct-09 17:16S 37°49' E 144°55'0 0.0
2017-Oct-09 16:28S 37°49' E 144°55'0 0.0
2017-Oct-09 16:01S 37°49' E 144°55'0 0.0
2017-Oct-09 15:22S 37°49' E 144°55'0 0.0
2017-Oct-09 15:01S 37°49' E 144°55'0 0.0
2017-Oct-09 14:22S 37°49' E 144°55'0 0.0
2017-Oct-09 14:01S 37°49' E 144°55'0 0.0
2017-Oct-09 13:28S 37°49' E 144°55'0 0.0
2017-Oct-09 09:55S 37°49' E 144°55'0 0.0
2017-Oct-09 07:58S 37°49' E 144°55'4 0.7
2017-Oct-09 02:17S 37°53' E 144°56'412.2
2017-Oct-09 01:57S 37°57' E 144°56'713.1
2017-Oct-09 01:26S 38°04' E 144°56'151 6.7
2017-Oct-08 02:46S 38°46' E 148°01'619.8
2017-Oct-08 02:26S 38°44' E 148°09'1016.6
2017-Oct-08 01:52S 38°39' E 148°19'615.1
2017-Oct-08 01:30S 38°36' E 148°25'914.6
2017-Oct-08 00:54S 38°31' E 148°34'714.1
2017-Oct-08 00:22S 38°26' E 148°42'714.4
2017-Oct-07 23:54S 38°23' E 148°49'714.7
2017-Oct-07 23:25S 38°19' E 148°56'715.3
2017-Oct-07 23:00S 38°15' E 149°03'915.5
2017-Oct-07 22:26S 38°09' E 149°12'715.2
2017-Oct-07 22:00S 38°06' E 149°19'1415.0
2017-Oct-07 21:02S 37°57' E 149°34'115.5
2017-Oct-07 21:00S 37°57' E 149°35'252 4.9
2017-Oct-05 17:56S 33°58' E 151°13'1 1.2
2017-Oct-05 17:30S 33°58' E 151°12'4 7.3
2017-Oct-05 16:59S 34°01' E 151°16'11 7.7
2017-Oct-05 15:30S 34°10' E 151°25'4 6.9
2017-Oct-05 15:00S 34°13' E 151°24'612.8
2017-Oct-05 14:31S 34°19' E 151°22'2012.9
2017-Oct-05 13:00S 34°38' E 151°16'21016.6
2017-Oct-05 00:24S 37°56' E 149°49'1219.2
2017-Oct-04 23:47S 38°04' E 149°38'1418.7
2017-Oct-04 23:03S 38°13' E 149°25'418.7
2017-Oct-04 22:51S 38°15' E 149°21'719.1
2017-Oct-04 22:29S 38°18' E 149°14'1019.4
2017-Oct-04 21:58S 38°24' E 149°03'919.5
2017-Oct-04 21:30S 38°29' E 148°53'1020.0
2017-Oct-04 21:00S 38°34' E 148°42'1120.1
2017-Oct-04 20:29S 38°40' E 148°31'919.7
2017-Oct-04 20:00S 38°45' E 148°20'1018.6
2017-Oct-04 19:28S 38°49' E 148°09'919.8
2017-Oct-04 19:00S 38°52' E 147°58'1019.7
2017-Oct-04 18:30S 38°55' E 147°46'2520.1
2017-Oct-04 17:17S 39°04' E 147°16'620.3
2017-Oct-04 16:58S 39°06' E 147°09'920.2
2017-Oct-04 16:30S 39°10' E 146°57'2819.7
2017-Oct-04 15:05S 39°16' E 146°22'3719.1
2017-Oct-04 13:10S 39°16' E 145°35'418.6
2017-Oct-04 12:58S 39°16' E 145°30'918.6
2017-Oct-04 12:30S 39°16' E 145°19'  

Dump ship's entire track history